sensor_id;sensor_type;location;lat;lon;timestamp;P1;durP1;ratioP1;P2;durP2;ratioP2
76127;SDS011;64873;50.102;14.434;2023-12-20T00:01:16;4.50;;;2.47;;
76127;SDS011;64873;50.102;14.434;2023-12-20T00:03:41;3.83;;;2.55;;
76127;SDS011;64873;50.102;14.434;2023-12-20T00:06:07;4.55;;;2.58;;
76127;SDS011;64873;50.102;14.434;2023-12-20T00:08:33;4.68;;;2.95;;
76127;SDS011;64873;50.102;14.434;2023-12-20T00:10:58;4.28;;;2.30;;
76127;SDS011;64873;50.102;14.434;2023-12-20T00:13:23;3.42;;;2.40;;
76127;SDS011;64873;50.102;14.434;2023-12-20T00:15:49;4.25;;;2.60;;
76127;SDS011;64873;50.102;14.434;2023-12-20T00:18:14;5.40;;;3.03;;
76127;SDS011;64873;50.102;14.434;2023-12-20T00:20:40;4.60;;;2.30;;
76127;SDS011;64873;50.102;14.434;2023-12-20T00:23:05;3.50;;;2.53;;
76127;SDS011;64873;50.102;14.434;2023-12-20T00:25:30;4.40;;;2.63;;
76127;SDS011;64873;50.102;14.434;2023-12-20T00:27:56;3.85;;;2.30;;
76127;SDS011;64873;50.102;14.434;2023-12-20T00:30:21;4.25;;;2.58;;
76127;SDS011;64873;50.102;14.434;2023-12-20T00:32:47;4.22;;;2.40;;
76127;SDS011;64873;50.102;14.434;2023-12-20T00:35:13;5.72;;;2.67;;
76127;SDS011;64873;50.102;14.434;2023-12-20T00:37:39;5.20;;;2.83;;
76127;SDS011;64873;50.102;14.434;2023-12-20T00:40:04;4.80;;;2.70;;
76127;SDS011;64873;50.102;14.434;2023-12-20T00:42:32;6.60;;;2.72;;
76127;SDS011;64873;50.102;14.434;2023-12-20T00:44:58;4.45;;;2.85;;
76127;SDS011;64873;50.102;14.434;2023-12-20T00:47:24;5.90;;;2.60;;
76127;SDS011;64873;50.102;14.434;2023-12-20T00:49:49;6.70;;;2.45;;
76127;SDS011;64873;50.102;14.434;2023-12-20T00:52:15;4.38;;;2.53;;
76127;SDS011;64873;50.102;14.434;2023-12-20T00:54:42;4.05;;;3.00;;
76127;SDS011;64873;50.102;14.434;2023-12-20T00:57:08;5.45;;;2.95;;
76127;SDS011;64873;50.102;14.434;2023-12-20T00:59:33;4.03;;;2.60;;
76127;SDS011;64873;50.102;14.434;2023-12-20T01:01:58;4.30;;;2.90;;
76127;SDS011;64873;50.102;14.434;2023-12-20T01:04:24;6.22;;;2.70;;
76127;SDS011;64873;50.102;14.434;2023-12-20T01:06:49;5.22;;;3.38;;
76127;SDS011;64873;50.102;14.434;2023-12-20T01:09:15;5.15;;;3.15;;
76127;SDS011;64873;50.102;14.434;2023-12-20T01:11:40;4.20;;;3.05;;
76127;SDS011;64873;50.102;14.434;2023-12-20T01:14:05;4.60;;;2.80;;
76127;SDS011;64873;50.102;14.434;2023-12-20T01:16:31;4.90;;;3.42;;
76127;SDS011;64873;50.102;14.434;2023-12-20T01:18:56;4.32;;;2.95;;
76127;SDS011;64873;50.102;14.434;2023-12-20T01:21:22;4.70;;;2.80;;
76127;SDS011;64873;50.102;14.434;2023-12-20T01:23:47;8.07;;;3.83;;
76127;SDS011;64873;50.102;14.434;2023-12-20T01:26:12;7.07;;;3.22;;
76127;SDS011;64873;50.102;14.434;2023-12-20T01:28:39;3.60;;;2.50;;
76127;SDS011;64873;50.102;14.434;2023-12-20T01:31:05;4.97;;;3.28;;
76127;SDS011;64873;50.102;14.434;2023-12-20T01:33:31;6.40;;;3.70;;
76127;SDS011;64873;50.102;14.434;2023-12-20T01:35:56;7.60;;;3.17;;
76127;SDS011;64873;50.102;14.434;2023-12-20T01:38:22;6.15;;;3.30;;
76127;SDS011;64873;50.102;14.434;2023-12-20T01:40:47;5.05;;;3.00;;
76127;SDS011;64873;50.102;14.434;2023-12-20T01:43:12;4.28;;;2.97;;
76127;SDS011;64873;50.102;14.434;2023-12-20T01:45:38;6.18;;;3.63;;
76127;SDS011;64873;50.102;14.434;2023-12-20T01:48:04;7.78;;;3.47;;
76127;SDS011;64873;50.102;14.434;2023-12-20T01:50:31;4.80;;;3.40;;
76127;SDS011;64873;50.102;14.434;2023-12-20T01:52:57;4.93;;;3.10;;
76127;SDS011;64873;50.102;14.434;2023-12-20T01:55:26;6.55;;;3.50;;
76127;SDS011;64873;50.102;14.434;2023-12-20T01:57:54;6.45;;;3.20;;
76127;SDS011;64873;50.102;14.434;2023-12-20T02:00:21;5.07;;;3.08;;
76127;SDS011;64873;50.102;14.434;2023-12-20T02:02:51;5.05;;;3.15;;
76127;SDS011;64873;50.102;14.434;2023-12-20T02:05:18;4.45;;;3.03;;
76127;SDS011;64873;50.102;14.434;2023-12-20T02:07:44;3.78;;;2.78;;
76127;SDS011;64873;50.102;14.434;2023-12-20T02:10:09;4.20;;;2.92;;
76127;SDS011;64873;50.102;14.434;2023-12-20T02:12:35;5.93;;;3.33;;
76127;SDS011;64873;50.102;14.434;2023-12-20T02:15:01;4.40;;;3.35;;
76127;SDS011;64873;50.102;14.434;2023-12-20T02:17:27;5.38;;;3.20;;
76127;SDS011;64873;50.102;14.434;2023-12-20T02:19:53;4.82;;;3.03;;
76127;SDS011;64873;50.102;14.434;2023-12-20T02:22:18;4.68;;;2.78;;
76127;SDS011;64873;50.102;14.434;2023-12-20T02:24:44;6.05;;;3.28;;
76127;SDS011;64873;50.102;14.434;2023-12-20T02:27:09;6.07;;;3.13;;
76127;SDS011;64873;50.102;14.434;2023-12-20T02:29:35;4.60;;;3.28;;
76127;SDS011;64873;50.102;14.434;2023-12-20T02:32:00;5.55;;;3.10;;
76127;SDS011;64873;50.102;14.434;2023-12-20T02:34:26;7.35;;;3.70;;
76127;SDS011;64873;50.102;14.434;2023-12-20T02:36:52;5.75;;;3.40;;
76127;SDS011;64873;50.102;14.434;2023-12-20T02:39:18;5.68;;;3.33;;
76127;SDS011;64873;50.102;14.434;2023-12-20T02:41:44;4.20;;;3.10;;
76127;SDS011;64873;50.102;14.434;2023-12-20T02:44:15;4.20;;;2.88;;
76127;SDS011;64873;50.102;14.434;2023-12-20T02:46:43;4.50;;;2.75;;
76127;SDS011;64873;50.102;14.434;2023-12-20T02:49:09;5.70;;;3.97;;
76127;SDS011;64873;50.102;14.434;2023-12-20T02:51:34;5.65;;;3.10;;
76127;SDS011;64873;50.102;14.434;2023-12-20T02:53:59;5.65;;;3.20;;
76127;SDS011;64873;50.102;14.434;2023-12-20T02:56:25;7.30;;;3.78;;
76127;SDS011;64873;50.102;14.434;2023-12-20T02:58:50;6.25;;;3.28;;
76127;SDS011;64873;50.102;14.434;2023-12-20T03:01:16;3.95;;;2.88;;
76127;SDS011;64873;50.102;14.434;2023-12-20T03:03:41;5.28;;;3.60;;
76127;SDS011;64873;50.102;14.434;2023-12-20T03:06:06;7.90;;;3.50;;
76127;SDS011;64873;50.102;14.434;2023-12-20T03:08:32;4.47;;;3.28;;
76127;SDS011;64873;50.102;14.434;2023-12-20T03:10:59;6.78;;;3.17;;
76127;SDS011;64873;50.102;14.434;2023-12-20T03:13:24;4.65;;;3.05;;
76127;SDS011;64873;50.102;14.434;2023-12-20T03:15:50;4.95;;;2.83;;
76127;SDS011;64873;50.102;14.434;2023-12-20T03:18:15;4.57;;;3.13;;
76127;SDS011;64873;50.102;14.434;2023-12-20T03:20:40;4.88;;;2.80;;
76127;SDS011;64873;50.102;14.434;2023-12-20T03:23:06;5.03;;;2.60;;
76127;SDS011;64873;50.102;14.434;2023-12-20T03:25:32;4.70;;;3.00;;
76127;SDS011;64873;50.102;14.434;2023-12-20T03:27:57;4.88;;;2.78;;
76127;SDS011;64873;50.102;14.434;2023-12-20T03:30:23;4.00;;;2.63;;
76127;SDS011;64873;50.102;14.434;2023-12-20T03:32:48;4.95;;;2.92;;
76127;SDS011;64873;50.102;14.434;2023-12-20T03:35:14;3.85;;;2.75;;
76127;SDS011;64873;50.102;14.434;2023-12-20T03:37:39;2.92;;;2.13;;
76127;SDS011;64873;50.102;14.434;2023-12-20T03:40:05;4.25;;;2.60;;
76127;SDS011;64873;50.102;14.434;2023-12-20T03:42:30;3.92;;;2.50;;
76127;SDS011;64873;50.102;14.434;2023-12-20T03:44:56;3.95;;;2.70;;
76127;SDS011;64873;50.102;14.434;2023-12-20T03:47:21;3.38;;;2.22;;
76127;SDS011;64873;50.102;14.434;2023-12-20T03:49:47;2.95;;;2.17;;
76127;SDS011;64873;50.102;14.434;2023-12-20T03:52:12;4.35;;;2.65;;
76127;SDS011;64873;50.102;14.434;2023-12-20T03:54:38;4.72;;;2.70;;
76127;SDS011;64873;50.102;14.434;2023-12-20T03:57:03;2.92;;;2.20;;
76127;SDS011;64873;50.102;14.434;2023-12-20T03:59:29;3.33;;;2.30;;
76127;SDS011;64873;50.102;14.434;2023-12-20T04:01:59;3.38;;;2.17;;
76127;SDS011;64873;50.102;14.434;2023-12-20T04:04:25;2.53;;;1.80;;
76127;SDS011;64873;50.102;14.434;2023-12-20T04:06:50;3.33;;;2.05;;
76127;SDS011;64873;50.102;14.434;2023-12-20T04:09:15;3.58;;;2.67;;
76127;SDS011;64873;50.102;14.434;2023-12-20T04:11:41;3.58;;;2.33;;
76127;SDS011;64873;50.102;14.434;2023-12-20T04:14:06;5.68;;;2.03;;
76127;SDS011;64873;50.102;14.434;2023-12-20T04:16:32;3.65;;;2.42;;
76127;SDS011;64873;50.102;14.434;2023-12-20T04:18:57;4.15;;;2.20;;
76127;SDS011;64873;50.102;14.434;2023-12-20T04:21:23;3.40;;;2.38;;
76127;SDS011;64873;50.102;14.434;2023-12-20T04:23:48;4.03;;;2.10;;
76127;SDS011;64873;50.102;14.434;2023-12-20T04:26:14;3.65;;;2.03;;
76127;SDS011;64873;50.102;14.434;2023-12-20T04:28:39;4.03;;;2.17;;
76127;SDS011;64873;50.102;14.434;2023-12-20T04:31:04;2.92;;;2.10;;
76127;SDS011;64873;50.102;14.434;2023-12-20T04:33:30;3.25;;;2.17;;
76127;SDS011;64873;50.102;14.434;2023-12-20T04:35:55;3.60;;;1.80;;
76127;SDS011;64873;50.102;14.434;2023-12-20T04:38:22;2.83;;;1.80;;
76127;SDS011;64873;50.102;14.434;2023-12-20T04:40:48;2.80;;;1.95;;
76127;SDS011;64873;50.102;14.434;2023-12-20T04:43:13;4.00;;;2.05;;
76127;SDS011;64873;50.102;14.434;2023-12-20T04:45:38;2.58;;;1.60;;
76127;SDS011;64873;50.102;14.434;2023-12-20T04:48:04;3.65;;;2.33;;
76127;SDS011;64873;50.102;14.434;2023-12-20T04:50:30;4.13;;;1.90;;
76127;SDS011;64873;50.102;14.434;2023-12-20T04:52:55;2.53;;;1.88;;
76127;SDS011;64873;50.102;14.434;2023-12-20T04:55:20;2.72;;;1.90;;
76127;SDS011;64873;50.102;14.434;2023-12-20T04:57:46;4.15;;;2.20;;
76127;SDS011;64873;50.102;14.434;2023-12-20T05:00:11;2.67;;;1.60;;
76127;SDS011;64873;50.102;14.434;2023-12-20T05:02:37;3.25;;;1.98;;
76127;SDS011;64873;50.102;14.434;2023-12-20T05:05:03;2.47;;;2.00;;
76127;SDS011;64873;50.102;14.434;2023-12-20T05:07:28;3.05;;;2.05;;
76127;SDS011;64873;50.102;14.434;2023-12-20T05:09:53;3.35;;;2.05;;
76127;SDS011;64873;50.102;14.434;2023-12-20T05:12:19;4.80;;;2.00;;
76127;SDS011;64873;50.102;14.434;2023-12-20T05:14:44;3.05;;;2.10;;
76127;SDS011;64873;50.102;14.434;2023-12-20T05:17:11;3.08;;;1.92;;
76127;SDS011;64873;50.102;14.434;2023-12-20T05:19:36;3.55;;;2.20;;
76127;SDS011;64873;50.102;14.434;2023-12-20T05:22:02;2.83;;;1.63;;
76127;SDS011;64873;50.102;14.434;2023-12-20T05:24:28;2.80;;;1.90;;
76127;SDS011;64873;50.102;14.434;2023-12-20T05:26:53;3.65;;;2.05;;
76127;SDS011;64873;50.102;14.434;2023-12-20T05:29:19;3.10;;;1.90;;
76127;SDS011;64873;50.102;14.434;2023-12-20T05:31:45;2.63;;;1.88;;
76127;SDS011;64873;50.102;14.434;2023-12-20T05:34:12;3.35;;;2.10;;
76127;SDS011;64873;50.102;14.434;2023-12-20T05:36:37;4.55;;;2.95;;
76127;SDS011;64873;50.102;14.434;2023-12-20T05:39:03;3.53;;;2.30;;
76127;SDS011;64873;50.102;14.434;2023-12-20T05:41:30;3.25;;;1.88;;
76127;SDS011;64873;50.102;14.434;2023-12-20T05:43:56;3.10;;;2.13;;
76127;SDS011;64873;50.102;14.434;2023-12-20T05:46:23;3.13;;;2.25;;
76127;SDS011;64873;50.102;14.434;2023-12-20T05:48:48;2.78;;;1.70;;
76127;SDS011;64873;50.102;14.434;2023-12-20T05:51:14;5.88;;;2.20;;
76127;SDS011;64873;50.102;14.434;2023-12-20T05:53:39;3.03;;;2.17;;
76127;SDS011;64873;50.102;14.434;2023-12-20T05:56:05;3.70;;;2.33;;
76127;SDS011;64873;50.102;14.434;2023-12-20T05:58:31;3.70;;;1.95;;
76127;SDS011;64873;50.102;14.434;2023-12-20T06:00:57;2.95;;;2.00;;
76127;SDS011;64873;50.102;14.434;2023-12-20T06:03:23;2.78;;;1.85;;
76127;SDS011;64873;50.102;14.434;2023-12-20T06:05:48;3.47;;;2.10;;
76127;SDS011;64873;50.102;14.434;2023-12-20T06:08:14;2.50;;;1.85;;
76127;SDS011;64873;50.102;14.434;2023-12-20T06:10:39;2.30;;;1.63;;
76127;SDS011;64873;50.102;14.434;2023-12-20T06:13:05;2.72;;;1.60;;
76127;SDS011;64873;50.102;14.434;2023-12-20T06:15:31;3.63;;;1.88;;
76127;SDS011;64873;50.102;14.434;2023-12-20T06:17:57;3.92;;;1.90;;
76127;SDS011;64873;50.102;14.434;2023-12-20T06:20:23;4.18;;;1.75;;
76127;SDS011;64873;50.102;14.434;2023-12-20T06:22:48;1.90;;;1.48;;
76127;SDS011;64873;50.102;14.434;2023-12-20T06:25:14;2.40;;;1.67;;
76127;SDS011;64873;50.102;14.434;2023-12-20T06:27:39;2.50;;;1.63;;
76127;SDS011;64873;50.102;14.434;2023-12-20T06:30:06;3.03;;;1.73;;
76127;SDS011;64873;50.102;14.434;2023-12-20T06:32:34;2.63;;;1.48;;
76127;SDS011;64873;50.102;14.434;2023-12-20T06:35:00;3.50;;;1.83;;
76127;SDS011;64873;50.102;14.434;2023-12-20T06:37:25;2.88;;;1.70;;
76127;SDS011;64873;50.102;14.434;2023-12-20T06:39:50;10.02;;;2.13;;
76127;SDS011;64873;50.102;14.434;2023-12-20T06:42:16;2.80;;;1.90;;
76127;SDS011;64873;50.102;14.434;2023-12-20T06:44:41;3.22;;;1.60;;
76127;SDS011;64873;50.102;14.434;2023-12-20T06:47:07;5.32;;;1.50;;
76127;SDS011;64873;50.102;14.434;2023-12-20T06:49:32;1.77;;;1.20;;
76127;SDS011;64873;50.102;14.434;2023-12-20T06:51:58;3.08;;;1.50;;
76127;SDS011;64873;50.102;14.434;2023-12-20T06:54:23;3.13;;;1.30;;
76127;SDS011;64873;50.102;14.434;2023-12-20T06:56:49;2.05;;;1.52;;
76127;SDS011;64873;50.102;14.434;2023-12-20T06:59:14;2.55;;;1.38;;
76127;SDS011;64873;50.102;14.434;2023-12-20T07:01:40;2.58;;;1.58;;
76127;SDS011;64873;50.102;14.434;2023-12-20T07:04:05;8.40;;;1.60;;
76127;SDS011;64873;50.102;14.434;2023-12-20T07:06:31;3.22;;;1.10;;
76127;SDS011;64873;50.102;14.434;2023-12-20T07:08:56;2.78;;;1.10;;
76127;SDS011;64873;50.102;14.434;2023-12-20T07:11:22;2.00;;;1.15;;
76127;SDS011;64873;50.102;14.434;2023-12-20T07:13:48;2.22;;;1.00;;
76127;SDS011;64873;50.102;14.434;2023-12-20T07:16:14;2.35;;;1.20;;
76127;SDS011;64873;50.102;14.434;2023-12-20T07:18:40;2.55;;;1.30;;
76127;SDS011;64873;50.102;14.434;2023-12-20T07:21:05;2.08;;;1.30;;
76127;SDS011;64873;50.102;14.434;2023-12-20T07:23:33;1.80;;;1.10;;
76127;SDS011;64873;50.102;14.434;2023-12-20T07:25:58;2.55;;;1.40;;
76127;SDS011;64873;50.102;14.434;2023-12-20T07:28:24;1.75;;;1.02;;
76127;SDS011;64873;50.102;14.434;2023-12-20T07:30:50;1.48;;;1.05;;
76127;SDS011;64873;50.102;14.434;2023-12-20T07:33:15;2.70;;;1.40;;
76127;SDS011;64873;50.102;14.434;2023-12-20T07:35:41;1.85;;;1.20;;
76127;SDS011;64873;50.102;14.434;2023-12-20T07:38:06;2.47;;;1.23;;
76127;SDS011;64873;50.102;14.434;2023-12-20T07:40:32;1.75;;;0.90;;
76127;SDS011;64873;50.102;14.434;2023-12-20T07:42:57;2.85;;;0.90;;
76127;SDS011;64873;50.102;14.434;2023-12-20T07:45:23;1.23;;;0.77;;
76127;SDS011;64873;50.102;14.434;2023-12-20T07:47:48;1.30;;;0.90;;
76127;SDS011;64873;50.102;14.434;2023-12-20T07:50:15;1.75;;;0.98;;
76127;SDS011;64873;50.102;14.434;2023-12-20T07:52:40;1.67;;;0.93;;
76127;SDS011;64873;50.102;14.434;2023-12-20T07:55:06;4.20;;;0.90;;
76127;SDS011;64873;50.102;14.434;2023-12-20T07:57:32;1.80;;;1.10;;
76127;SDS011;64873;50.102;14.434;2023-12-20T07:59:57;1.33;;;0.90;;
76127;SDS011;64873;50.102;14.434;2023-12-20T08:02:23;1.50;;;0.90;;
76127;SDS011;64873;50.102;14.434;2023-12-20T08:04:48;1.60;;;0.90;;
76127;SDS011;64873;50.102;14.434;2023-12-20T08:07:13;1.40;;;0.90;;
76127;SDS011;64873;50.102;14.434;2023-12-20T08:09:39;2.25;;;0.77;;
76127;SDS011;64873;50.102;14.434;2023-12-20T08:12:05;2.63;;;0.85;;
76127;SDS011;64873;50.102;14.434;2023-12-20T08:14:30;3.20;;;1.00;;
76127;SDS011;64873;50.102;14.434;2023-12-20T08:16:56;1.02;;;0.70;;
76127;SDS011;64873;50.102;14.434;2023-12-20T08:19:22;1.38;;;0.88;;
76127;SDS011;64873;50.102;14.434;2023-12-20T08:21:47;1.88;;;0.77;;
76127;SDS011;64873;50.102;14.434;2023-12-20T08:24:13;2.35;;;0.75;;
76127;SDS011;64873;50.102;14.434;2023-12-20T08:26:38;1.17;;;0.70;;
76127;SDS011;64873;50.102;14.434;2023-12-20T08:29:03;1.10;;;0.80;;
76127;SDS011;64873;50.102;14.434;2023-12-20T08:31:29;1.27;;;0.70;;
76127;SDS011;64873;50.102;14.434;2023-12-20T08:33:54;1.38;;;0.68;;
76127;SDS011;64873;50.102;14.434;2023-12-20T08:36:20;1.55;;;0.80;;
76127;SDS011;64873;50.102;14.434;2023-12-20T08:38:47;1.52;;;0.80;;
76127;SDS011;64873;50.102;14.434;2023-12-20T08:41:13;2.03;;;0.77;;
76127;SDS011;64873;50.102;14.434;2023-12-20T08:43:38;1.42;;;0.82;;
76127;SDS011;64873;50.102;14.434;2023-12-20T08:46:07;1.35;;;0.80;;
76127;SDS011;64873;50.102;14.434;2023-12-20T08:48:34;2.55;;;0.90;;
76127;SDS011;64873;50.102;14.434;2023-12-20T08:51:00;1.25;;;0.70;;
76127;SDS011;64873;50.102;14.434;2023-12-20T08:53:25;0.90;;;0.70;;
76127;SDS011;64873;50.102;14.434;2023-12-20T08:55:51;2.30;;;0.80;;
76127;SDS011;64873;50.102;14.434;2023-12-20T08:58:17;1.10;;;0.60;;
76127;SDS011;64873;50.102;14.434;2023-12-20T09:00:42;1.15;;;0.65;;
76127;SDS011;64873;50.102;14.434;2023-12-20T09:03:08;1.35;;;0.70;;
76127;SDS011;64873;50.102;14.434;2023-12-20T09:05:33;1.00;;;0.70;;
76127;SDS011;64873;50.102;14.434;2023-12-20T09:07:59;1.42;;;0.77;;
76127;SDS011;64873;50.102;14.434;2023-12-20T09:10:24;0.85;;;0.68;;
76127;SDS011;64873;50.102;14.434;2023-12-20T09:12:53;2.13;;;0.70;;
76127;SDS011;64873;50.102;14.434;2023-12-20T09:15:26;1.67;;;0.75;;
76127;SDS011;64873;50.102;14.434;2023-12-20T09:17:52;1.67;;;0.93;;
76127;SDS011;64873;50.102;14.434;2023-12-20T09:20:18;1.38;;;0.70;;
76127;SDS011;64873;50.102;14.434;2023-12-20T09:22:43;0.82;;;0.55;;
76127;SDS011;64873;50.102;14.434;2023-12-20T09:25:09;1.58;;;0.70;;
76127;SDS011;64873;50.102;14.434;2023-12-20T09:27:36;1.38;;;0.77;;
76127;SDS011;64873;50.102;14.434;2023-12-20T09:30:01;1.60;;;0.98;;
76127;SDS011;64873;50.102;14.434;2023-12-20T09:32:27;1.13;;;0.60;;
76127;SDS011;64873;50.102;14.434;2023-12-20T09:34:54;1.33;;;0.63;;
76127;SDS011;64873;50.102;14.434;2023-12-20T09:37:20;1.20;;;0.63;;
76127;SDS011;64873;50.102;14.434;2023-12-20T09:39:45;1.33;;;0.73;;
76127;SDS011;64873;50.102;14.434;2023-12-20T09:42:11;1.50;;;0.90;;
76127;SDS011;64873;50.102;14.434;2023-12-20T09:44:41;1.52;;;0.90;;
76127;SDS011;64873;50.102;14.434;2023-12-20T09:47:07;2.10;;;0.80;;
76127;SDS011;64873;50.102;14.434;2023-12-20T09:49:33;0.90;;;0.52;;
76127;SDS011;64873;50.102;14.434;2023-12-20T09:51:59;0.95;;;0.65;;
76127;SDS011;64873;50.102;14.434;2023-12-20T09:54:26;1.80;;;0.80;;
76127;SDS011;64873;50.102;14.434;2023-12-20T09:56:53;1.55;;;1.02;;
76127;SDS011;64873;50.102;14.434;2023-12-20T09:59:19;2.33;;;0.90;;
76127;SDS011;64873;50.102;14.434;2023-12-20T10:01:44;1.58;;;0.70;;
76127;SDS011;64873;50.102;14.434;2023-12-20T10:04:10;1.88;;;0.88;;
76127;SDS011;64873;50.102;14.434;2023-12-20T10:06:38;1.92;;;1.00;;
76127;SDS011;64873;50.102;14.434;2023-12-20T10:09:05;1.42;;;0.82;;
76127;SDS011;64873;50.102;14.434;2023-12-20T10:11:30;1.42;;;0.80;;
76127;SDS011;64873;50.102;14.434;2023-12-20T10:13:59;0.73;;;0.55;;
76127;SDS011;64873;50.102;14.434;2023-12-20T10:16:28;1.63;;;0.88;;
76127;SDS011;64873;50.102;14.434;2023-12-20T10:18:54;1.25;;;0.77;;
76127;SDS011;64873;50.102;14.434;2023-12-20T10:21:21;0.90;;;0.70;;
76127;SDS011;64873;50.102;14.434;2023-12-20T10:23:48;1.48;;;0.90;;
76127;SDS011;64873;50.102;14.434;2023-12-20T10:26:20;1.58;;;0.60;;
76127;SDS011;64873;50.102;14.434;2023-12-20T10:28:50;1.65;;;0.80;;
76127;SDS011;64873;50.102;14.434;2023-12-20T10:31:32;3.65;;;0.77;;
76127;SDS011;64873;50.102;14.434;2023-12-20T10:33:59;1.60;;;0.90;;
76127;SDS011;64873;50.102;14.434;2023-12-20T10:36:26;0.98;;;0.60;;
76127;SDS011;64873;50.102;14.434;2023-12-20T10:38:54;0.70;;;0.50;;
76127;SDS011;64873;50.102;14.434;2023-12-20T10:43:59;0.98;;;0.60;;
76127;SDS011;64873;50.102;14.434;2023-12-20T10:46:29;1.38;;;0.77;;
76127;SDS011;64873;50.102;14.434;2023-12-20T10:48:55;0.70;;;0.50;;
76127;SDS011;64873;50.102;14.434;2023-12-20T10:51:24;2.67;;;0.73;;
76127;SDS011;64873;50.102;14.434;2023-12-20T10:53:55;1.00;;;0.60;;
76127;SDS011;64873;50.102;14.434;2023-12-20T10:56:21;1.92;;;0.90;;
76127;SDS011;64873;50.102;14.434;2023-12-20T10:58:48;1.30;;;0.73;;
76127;SDS011;64873;50.102;14.434;2023-12-20T11:01:14;0.90;;;0.50;;
76127;SDS011;64873;50.102;14.434;2023-12-20T11:03:48;1.05;;;0.60;;
76127;SDS011;64873;50.102;14.434;2023-12-20T11:06:40;1.52;;;0.90;;
76127;SDS011;64873;50.102;14.434;2023-12-20T11:09:35;2.15;;;0.90;;
76127;SDS011;64873;50.102;14.434;2023-12-20T11:12:15;1.67;;;0.90;;
76127;SDS011;64873;50.102;14.434;2023-12-20T11:17:15;1.25;;;0.70;;
76127;SDS011;64873;50.102;14.434;2023-12-20T11:22:21;2.05;;;1.00;;
76127;SDS011;64873;50.102;14.434;2023-12-20T11:24:47;2.65;;;1.13;;
76127;SDS011;64873;50.102;14.434;2023-12-20T11:27:14;1.30;;;0.82;;
76127;SDS011;64873;50.102;14.434;2023-12-20T11:29:40;1.45;;;0.70;;
76127;SDS011;64873;50.102;14.434;2023-12-20T11:32:28;1.58;;;0.85;;
76127;SDS011;64873;50.102;14.434;2023-12-20T11:34:55;2.50;;;0.70;;
76127;SDS011;64873;50.102;14.434;2023-12-20T11:37:37;1.02;;;0.73;;
76127;SDS011;64873;50.102;14.434;2023-12-20T11:40:06;1.10;;;0.70;;
76127;SDS011;64873;50.102;14.434;2023-12-20T11:45:30;2.75;;;1.00;;
76127;SDS011;64873;50.102;14.434;2023-12-20T11:47:57;1.88;;;0.90;;
76127;SDS011;64873;50.102;14.434;2023-12-20T11:50:23;1.33;;;0.93;;
76127;SDS011;64873;50.102;14.434;2023-12-20T11:52:49;1.20;;;0.90;;
76127;SDS011;64873;50.102;14.434;2023-12-20T11:55:16;1.92;;;0.90;;
76127;SDS011;64873;50.102;14.434;2023-12-20T11:57:42;2.15;;;1.02;;
76127;SDS011;64873;50.102;14.434;2023-12-20T12:00:08;2.70;;;1.40;;
76127;SDS011;64873;50.102;14.434;2023-12-20T12:02:35;1.27;;;0.82;;
76127;SDS011;64873;50.102;14.434;2023-12-20T12:05:00;1.45;;;1.13;;
76127;SDS011;64873;50.102;14.434;2023-12-20T12:07:26;8.68;;;1.10;;
76127;SDS011;64873;50.102;14.434;2023-12-20T12:09:51;0.98;;;0.70;;
76127;SDS011;64873;50.102;14.434;2023-12-20T12:12:17;1.77;;;0.90;;
76127;SDS011;64873;50.102;14.434;2023-12-20T12:14:45;1.30;;;1.00;;
76127;SDS011;64873;50.102;14.434;2023-12-20T12:17:14;1.58;;;0.80;;
76127;SDS011;64873;50.102;14.434;2023-12-20T12:19:40;2.05;;;1.10;;
76127;SDS011;64873;50.102;14.434;2023-12-20T12:22:07;3.58;;;1.30;;
76127;SDS011;64873;50.102;14.434;2023-12-20T12:24:40;4.60;;;2.22;;
76127;SDS011;64873;50.102;14.434;2023-12-20T12:27:07;3.35;;;1.15;;
76127;SDS011;64873;50.102;14.434;2023-12-20T12:29:34;4.13;;;1.20;;
76127;SDS011;64873;50.102;14.434;2023-12-20T12:32:00;2.33;;;1.17;;
76127;SDS011;64873;50.102;14.434;2023-12-20T12:34:29;3.67;;;1.20;;
76127;SDS011;64873;50.102;14.434;2023-12-20T12:36:55;2.63;;;1.17;;
76127;SDS011;64873;50.102;14.434;2023-12-20T12:39:21;2.13;;;1.10;;
76127;SDS011;64873;50.102;14.434;2023-12-20T12:41:49;2.60;;;1.30;;
76127;SDS011;64873;50.102;14.434;2023-12-20T12:44:14;1.50;;;0.95;;
76127;SDS011;64873;50.102;14.434;2023-12-20T12:46:40;2.25;;;1.20;;
76127;SDS011;64873;50.102;14.434;2023-12-20T12:49:05;2.70;;;1.20;;
76127;SDS011;64873;50.102;14.434;2023-12-20T12:51:31;1.42;;;1.02;;
76127;SDS011;64873;50.102;14.434;2023-12-20T12:53:56;1.50;;;1.00;;
76127;SDS011;64873;50.102;14.434;2023-12-20T12:56:22;4.82;;;1.30;;
76127;SDS011;64873;50.102;14.434;2023-12-20T12:58:48;1.33;;;0.90;;
76127;SDS011;64873;50.102;14.434;2023-12-20T13:01:13;2.78;;;0.80;;
76127;SDS011;64873;50.102;14.434;2023-12-20T13:03:39;2.42;;;1.00;;
76127;SDS011;64873;50.102;14.434;2023-12-20T13:06:04;2.38;;;1.10;;
76127;SDS011;64873;50.102;14.434;2023-12-20T13:08:31;2.20;;;0.80;;
76127;SDS011;64873;50.102;14.434;2023-12-20T13:10:57;4.32;;;0.75;;
76127;SDS011;64873;50.102;14.434;2023-12-20T13:13:25;2.05;;;0.68;;
76127;SDS011;64873;50.102;14.434;2023-12-20T13:15:54;4.95;;;1.05;;
76127;SDS011;64873;50.102;14.434;2023-12-20T13:18:20;2.42;;;0.98;;
76127;SDS011;64873;50.102;14.434;2023-12-20T13:20:46;4.70;;;1.20;;
76127;SDS011;64873;50.102;14.434;2023-12-20T13:23:12;12.20;;;1.33;;
76127;SDS011;64873;50.102;14.434;2023-12-20T13:25:38;4.43;;;1.02;;
76127;SDS011;64873;50.102;14.434;2023-12-20T13:28:04;4.53;;;1.38;;
76127;SDS011;64873;50.102;14.434;2023-12-20T13:30:30;2.63;;;1.10;;
76127;SDS011;64873;50.102;14.434;2023-12-20T13:32:55;4.00;;;0.85;;
76127;SDS011;64873;50.102;14.434;2023-12-20T13:35:24;5.72;;;2.20;;
76127;SDS011;64873;50.102;14.434;2023-12-20T13:37:50;7.10;;;2.42;;
76127;SDS011;64873;50.102;14.434;2023-12-20T13:40:18;3.50;;;1.55;;
76127;SDS011;64873;50.102;14.434;2023-12-20T13:42:44;2.63;;;1.33;;
76127;SDS011;64873;50.102;14.434;2023-12-20T13:45:13;5.25;;;1.30;;
76127;SDS011;64873;50.102;14.434;2023-12-20T13:47:39;4.28;;;1.50;;
76127;SDS011;64873;50.102;14.434;2023-12-20T13:50:04;3.33;;;1.13;;
76127;SDS011;64873;50.102;14.434;2023-12-20T13:52:30;3.25;;;1.45;;
76127;SDS011;64873;50.102;14.434;2023-12-20T13:54:55;1.80;;;0.90;;
76127;SDS011;64873;50.102;14.434;2023-12-20T13:57:21;5.38;;;1.65;;
76127;SDS011;64873;50.102;14.434;2023-12-20T13:59:46;5.13;;;1.05;;
76127;SDS011;64873;50.102;14.434;2023-12-20T14:02:12;2.97;;;1.17;;
76127;SDS011;64873;50.102;14.434;2023-12-20T14:04:37;3.63;;;1.00;;
76127;SDS011;64873;50.102;14.434;2023-12-20T14:07:04;2.85;;;1.20;;
76127;SDS011;64873;50.102;14.434;2023-12-20T14:09:30;3.55;;;1.10;;
76127;SDS011;64873;50.102;14.434;2023-12-20T14:11:55;5.65;;;1.50;;
76127;SDS011;64873;50.102;14.434;2023-12-20T14:14:21;2.97;;;1.13;;
76127;SDS011;64873;50.102;14.434;2023-12-20T14:16:46;9.40;;;0.93;;
76127;SDS011;64873;50.102;14.434;2023-12-20T14:19:11;2.08;;;1.02;;
76127;SDS011;64873;50.102;14.434;2023-12-20T14:21:37;2.55;;;0.73;;
76127;SDS011;64873;50.102;14.434;2023-12-20T14:24:02;2.92;;;1.20;;
76127;SDS011;64873;50.102;14.434;2023-12-20T14:26:29;2.15;;;0.93;;
76127;SDS011;64873;50.102;14.434;2023-12-20T14:28:55;2.53;;;1.17;;
76127;SDS011;64873;50.102;14.434;2023-12-20T14:31:20;4.22;;;1.25;;
76127;SDS011;64873;50.102;14.434;2023-12-20T14:33:48;2.20;;;1.35;;
76127;SDS011;64873;50.102;14.434;2023-12-20T14:36:17;2.05;;;0.90;;
76127;SDS011;64873;50.102;14.434;2023-12-20T14:38:43;2.97;;;1.08;;